createdAt,value
2023-03-24T00:01:27.673Z,100.00
2023-03-24T00:03:55.828Z,100.00
2023-03-24T00:06:24.082Z,100.00
2023-03-24T00:08:53.508Z,100.00
2023-03-24T00:11:21.645Z,100.00
2023-03-24T00:13:50.558Z,100.00
2023-03-24T00:16:20.042Z,100.00
2023-03-24T00:18:54.430Z,100.00
2023-03-24T00:21:27.671Z,100.00
2023-03-24T00:23:59.882Z,100.00
2023-03-24T00:26:28.747Z,100.00
2023-03-24T00:28:57.552Z,100.00
2023-03-24T00:31:26.270Z,100.00
2023-03-24T00:33:54.990Z,100.00
2023-03-24T00:36:26.427Z,100.00
2023-03-24T00:38:55.966Z,100.00
2023-03-24T00:41:27.208Z,100.00
2023-03-24T00:43:58.606Z,100.00
2023-03-24T00:46:30.233Z,100.00
2023-03-24T00:49:05.811Z,100.00
2023-03-24T00:51:37.139Z,100.00
2023-03-24T00:54:05.331Z,100.00
2023-03-24T00:56:36.356Z,100.00
2023-03-24T00:59:05.116Z,100.00
2023-03-24T01:01:35.526Z,100.00
2023-03-24T01:04:06.451Z,100.00
2023-03-24T01:06:37.197Z,100.00
2023-03-24T01:09:06.752Z,100.00
2023-03-24T01:11:38.994Z,100.00
2023-03-24T01:14:06.864Z,100.00
2023-03-24T01:16:34.845Z,100.00
2023-03-24T01:19:02.578Z,100.00
2023-03-24T01:21:32.065Z,100.00
2023-03-24T01:23:59.592Z,100.00
2023-03-24T01:26:28.315Z,100.00
2023-03-24T01:28:56.344Z,100.00
2023-03-24T01:31:24.722Z,100.00
2023-03-24T01:33:52.363Z,100.00
2023-03-24T01:36:20.349Z,100.00
2023-03-24T01:38:48.043Z,100.00
2023-03-24T01:41:16.340Z,100.00
2023-03-24T01:43:44.894Z,100.00
2023-03-24T01:46:14.977Z,100.00
2023-03-24T01:48:56.075Z,100.00
2023-03-24T01:51:27.788Z,100.00
2023-03-24T01:54:01.736Z,100.00
2023-03-24T01:56:36.481Z,100.00
2023-03-24T01:59:15.893Z,100.00
2023-03-24T02:02:03.610Z,100.00
2023-03-24T02:04:45.674Z,100.00
2023-03-24T02:07:26.574Z,100.00
2023-03-24T02:09:54.231Z,100.00
2023-03-24T02:12:22.517Z,100.00
2023-03-24T02:14:50.998Z,100.00
2023-03-24T02:17:55.063Z,100.00
2023-03-24T02:20:31.262Z,100.00
2023-03-24T02:23:30.822Z,100.00
2023-03-24T02:26:01.151Z,100.00
2023-03-24T02:28:37.159Z,100.00
2023-03-24T02:31:24.520Z,100.00
2023-03-24T02:34:11.643Z,100.00
2023-03-24T02:36:42.551Z,100.00
2023-03-24T02:39:29.118Z,100.00
2023-03-24T02:42:17.762Z,100.00
2023-03-24T02:44:49.133Z,100.00
2023-03-24T02:47:55.493Z,100.00
2023-03-24T02:50:51.435Z,100.00
2023-03-24T02:53:24.734Z,100.00
2023-03-24T02:56:13.726Z,100.00
2023-03-24T02:58:46.296Z,100.00
2023-03-24T03:01:36.309Z,100.00
2023-03-24T03:04:29.221Z,100.00
2023-03-24T03:06:59.383Z,100.00
2023-03-24T03:09:28.449Z,100.00
2023-03-24T03:11:58.416Z,100.00
2023-03-24T03:14:50.214Z,100.00
2023-03-24T03:17:24.041Z,100.00
2023-03-24T03:19:56.610Z,100.00
2023-03-24T03:22:29.333Z,100.00
2023-03-24T03:24:57.954Z,100.00
2023-03-24T03:27:31.612Z,100.00
2023-03-24T03:30:06.115Z,100.00
2023-03-24T03:32:39.693Z,100.00
2023-03-24T03:35:15.025Z,100.00
2023-03-24T03:38:16.342Z,100.00
2023-03-24T03:40:49.907Z,100.00
2023-03-24T03:43:21.161Z,100.00
2023-03-24T03:45:49.153Z,100.00
2023-03-24T03:48:20.799Z,100.00
2023-03-24T03:50:50.643Z,100.00
2023-03-24T03:53:24.327Z,100.00
2023-03-24T03:55:52.714Z,100.00
2023-03-24T03:58:21.352Z,100.00
2023-03-24T04:00:56.149Z,100.00
2023-03-24T04:04:21.918Z,100.00
2023-03-24T04:07:37.504Z,100.00
2023-03-24T04:11:06.684Z,100.00
2023-03-24T04:13:59.876Z,100.00
2023-03-24T04:17:12.843Z,100.00
2023-03-24T04:20:02.125Z,100.00
2023-03-24T04:23:09.885Z,100.00
2023-03-24T04:25:50.369Z,100.00
2023-03-24T04:28:20.570Z,100.00
2023-03-24T04:31:03.781Z,100.00
2023-03-24T04:33:39.250Z,100.00
2023-03-24T04:36:17.419Z,100.00
2023-03-24T04:39:05.800Z,100.00
2023-03-24T04:41:41.559Z,100.00
2023-03-24T04:44:17.973Z,100.00
2023-03-24T04:47:03.581Z,100.00
2023-03-24T04:49:32.813Z,100.00
2023-03-24T04:52:00.448Z,100.00
2023-03-24T04:54:33.627Z,100.00
2023-03-24T04:57:06.293Z,100.00
2023-03-24T04:59:40.888Z,100.00
2023-03-24T05:02:09.447Z,100.00
2023-03-24T05:04:50.080Z,100.00
2023-03-24T05:07:25.769Z,100.00
2023-03-24T05:09:58.312Z,100.00
2023-03-24T05:12:26.347Z,100.00
2023-03-24T05:15:14.184Z,100.00
2023-03-24T05:17:43.045Z,100.00
2023-03-24T05:20:13.322Z,100.00
2023-03-24T05:22:44.050Z,100.00
2023-03-24T05:25:12.793Z,100.00
2023-03-24T05:27:40.531Z,100.00
2023-03-24T05:30:27.358Z,100.00
2023-03-24T05:33:03.642Z,100.00
2023-03-24T05:35:32.308Z,100.00
2023-03-24T05:38:00.964Z,100.00
2023-03-24T05:40:29.576Z,100.00
2023-03-24T05:43:17.136Z,100.00
2023-03-24T05:45:57.181Z,100.00
2023-03-24T05:48:31.127Z,100.00
2023-03-24T05:51:18.516Z,100.00
2023-03-24T05:53:52.876Z,100.00
2023-03-24T05:56:31.506Z,100.00
2023-03-24T05:59:11.935Z,100.00
2023-03-24T06:01:59.240Z,100.00
2023-03-24T06:04:36.691Z,100.00
2023-03-24T06:07:12.165Z,100.00
2023-03-24T06:09:47.266Z,100.00
2023-03-24T06:12:17.426Z,100.00
2023-03-24T06:14:53.307Z,100.00
2023-03-24T06:17:21.714Z,100.00
2023-03-24T06:19:54.112Z,100.00
2023-03-24T06:22:40.551Z,100.00
2023-03-24T06:25:13.397Z,100.00
2023-03-24T06:27:48.810Z,100.00
2023-03-24T06:30:21.308Z,100.00
2023-03-24T06:32:50.597Z,100.00
2023-03-24T06:35:19.934Z,100.00
2023-03-24T06:37:54.009Z,100.00
2023-03-24T06:40:22.804Z,100.00
2023-03-24T06:42:58.439Z,100.00
2023-03-24T06:45:27.904Z,100.00
2023-03-24T06:47:57.581Z,100.00
2023-03-24T06:50:27.574Z,100.00
2023-03-24T06:52:56.793Z,100.00
2023-03-24T06:55:25.888Z,100.00
2023-03-24T06:57:56.289Z,100.00
2023-03-24T07:00:47.725Z,100.00
2023-03-24T07:03:36.931Z,100.00
2023-03-24T07:06:23.796Z,100.00
2023-03-24T07:08:55.609Z,100.00
2023-03-24T07:11:25.573Z,100.00
2023-03-24T07:13:59.951Z,100.00
2023-03-24T07:16:29.476Z,100.00
2023-03-24T07:19:05.848Z,100.00
2023-03-24T07:21:37.491Z,100.00
2023-03-24T07:24:07.085Z,100.00
2023-03-24T07:26:44.746Z,100.00
2023-03-24T07:29:20.175Z,100.00
2023-03-24T07:32:02.640Z,100.00
2023-03-24T07:34:32.455Z,100.00
2023-03-24T07:37:01.847Z,100.00
2023-03-24T07:39:31.641Z,100.00
2023-03-24T07:41:59.787Z,100.00
2023-03-24T07:44:45.343Z,100.00
2023-03-24T07:47:13.421Z,100.00
2023-03-24T07:49:41.948Z,100.00
2023-03-24T07:52:12.367Z,100.00
2023-03-24T07:54:46.092Z,100.00
2023-03-24T07:57:32.304Z,100.00
2023-03-24T08:00:00.877Z,100.00
2023-03-24T08:02:43.575Z,100.00
2023-03-24T08:05:39.638Z,100.00
2023-03-24T08:08:25.998Z,100.00
2023-03-24T08:10:54.444Z,100.00
2023-03-24T08:13:23.090Z,100.00
2023-03-24T08:15:53.642Z,100.00
2023-03-24T08:18:22.644Z,100.00
2023-03-24T08:20:51.336Z,100.00
2023-03-24T08:23:19.058Z,100.00
2023-03-24T08:25:47.859Z,100.00
2023-03-24T08:28:17.141Z,100.00
2023-03-24T08:30:45.915Z,100.00
2023-03-24T08:33:15.794Z,100.00
2023-03-24T08:35:46.514Z,100.00
2023-03-24T08:38:18.593Z,100.00
2023-03-24T08:40:49.255Z,100.00
2023-03-24T08:43:18.076Z,100.00
2023-03-24T08:45:46.954Z,100.00
2023-03-24T08:48:14.886Z,100.00
2023-03-24T08:50:43.945Z,100.00
2023-03-24T08:53:12.780Z,100.00
2023-03-24T08:55:43.417Z,100.00
2023-03-24T08:58:15.422Z,100.00
2023-03-24T09:00:44.662Z,100.00
2023-03-24T09:03:18.912Z,100.00
2023-03-24T09:05:47.976Z,100.00
2023-03-24T09:08:17.513Z,100.00
2023-03-24T09:10:49.912Z,100.00
2023-03-24T09:13:18.866Z,100.00
2023-03-24T09:15:59.105Z,100.00
2023-03-24T09:18:27.356Z,100.00
2023-03-24T09:20:56.359Z,100.00
2023-03-24T09:23:24.400Z,100.00
2023-03-24T09:25:53.921Z,100.00
2023-03-24T09:28:22.517Z,100.00
2023-03-24T09:30:51.338Z,100.00
2023-03-24T09:33:19.707Z,100.00
2023-03-24T09:35:56.511Z,100.00
2023-03-24T09:38:27.082Z,100.00
2023-03-24T09:41:04.583Z,100.00
2023-03-24T09:43:51.329Z,100.00
2023-03-24T09:46:35.242Z,100.00
2023-03-24T09:49:05.078Z,100.00
2023-03-24T09:51:37.100Z,100.00
2023-03-24T09:54:19.915Z,100.00
2023-03-24T09:56:51.533Z,100.00
2023-03-24T09:59:33.816Z,100.00
2023-03-24T10:02:02.390Z,100.00
2023-03-24T10:04:32.398Z,100.00
2023-03-24T10:07:12.944Z,100.00
2023-03-24T10:09:40.703Z,100.00
2023-03-24T10:12:21.625Z,100.00
2023-03-24T10:15:03.993Z,100.00
2023-03-24T10:18:05.219Z,100.00
2023-03-24T10:20:44.851Z,100.00
2023-03-24T10:23:28.070Z,100.00
2023-03-24T10:26:32.373Z,100.00
2023-03-24T10:29:06.755Z,100.00
2023-03-24T10:31:36.590Z,100.00
2023-03-24T10:34:09.170Z,100.00
2023-03-24T10:36:39.617Z,100.00
2023-03-24T10:39:22.683Z,100.00
2023-03-24T10:41:55.125Z,100.00
2023-03-24T10:44:23.419Z,100.00
2023-03-24T10:46:54.827Z,100.00
2023-03-24T10:49:24.299Z,100.00
2023-03-24T10:51:57.149Z,100.00
2023-03-24T10:54:26.915Z,100.00
2023-03-24T10:57:06.450Z,100.00
2023-03-24T10:59:48.909Z,100.00
2023-03-24T11:02:19.410Z,100.00
2023-03-24T11:04:57.435Z,100.00
2023-03-24T11:07:41.232Z,100.00
2023-03-24T11:10:17.397Z,100.00
2023-03-24T11:12:58.196Z,100.00
2023-03-24T11:15:30.961Z,100.00
2023-03-24T11:18:04.179Z,100.00
2023-03-24T11:20:39.426Z,100.00
2023-03-24T11:23:12.630Z,100.00
2023-03-24T11:25:42.391Z,100.00
2023-03-24T11:28:16.310Z,100.00
2023-03-24T11:30:55.514Z,100.00
2023-03-24T11:33:35.505Z,100.00
2023-03-24T11:36:30.881Z,100.00
2023-03-24T11:39:11.954Z,100.00
2023-03-24T11:41:44.345Z,100.00
2023-03-24T11:44:17.864Z,100.00
2023-03-24T11:46:51.428Z,100.00
2023-03-24T11:49:22.990Z,100.00
2023-03-24T11:51:54.124Z,100.00
2023-03-24T11:54:26.198Z,100.00
2023-03-24T11:56:59.159Z,100.00
2023-03-24T11:59:31.771Z,100.00
2023-03-24T12:02:20.582Z,100.00
2023-03-24T12:05:06.990Z,100.00
2023-03-24T12:07:58.728Z,100.00
2023-03-24T12:10:50.074Z,100.00
2023-03-24T12:13:45.193Z,100.00
2023-03-24T12:16:34.715Z,100.00
2023-03-24T12:19:12.158Z,99.83
2023-03-24T12:22:19.031Z,100.00
2023-03-24T12:25:06.625Z,98.78
2023-03-24T12:27:57.209Z,97.57
2023-03-24T12:30:46.529Z,94.48
2023-03-24T12:33:29.497Z,95.09
2023-03-24T12:36:03.489Z,92.04
2023-03-24T12:38:46.572Z,92.72
2023-03-24T12:41:38.055Z,92.03
2023-03-24T12:44:28.557Z,87.82
2023-03-24T12:47:18.649Z,90.70
2023-03-24T12:50:08.143Z,90.40
2023-03-24T12:52:49.075Z,88.73
2023-03-24T12:55:51.731Z,88.79
2023-03-24T12:58:27.032Z,87.72
2023-03-24T13:01:02.713Z,87.30
2023-03-24T13:03:55.105Z,86.68
2023-03-24T13:06:34.445Z,86.42
2023-03-24T13:09:30.379Z,87.92
2023-03-24T13:12:33.838Z,85.79
2023-03-24T13:15:32.544Z,86.15
2023-03-24T13:18:09.139Z,85.27
2023-03-24T13:20:40.624Z,85.29
2023-03-24T13:23:24.955Z,85.99
2023-03-24T13:26:06.789Z,85.18
2023-03-24T13:28:44.540Z,85.78
2023-03-24T13:31:13.693Z,84.76
2023-03-24T13:33:44.775Z,86.61
2023-03-24T13:36:23.893Z,87.34
2023-03-24T13:38:55.266Z,85.74
2023-03-24T13:41:27.475Z,85.32
2023-03-24T13:44:00.707Z,86.29
2023-03-24T13:46:29.438Z,86.41
2023-03-24T13:48:59.070Z,85.22
2023-03-24T13:51:36.367Z,85.01
2023-03-24T13:54:29.296Z,85.16
2023-03-24T13:57:07.383Z,84.88
2023-03-24T13:59:38.419Z,84.62
2023-03-24T14:02:29.547Z,84.88
2023-03-24T14:05:34.615Z,84.39
2023-03-24T14:08:05.213Z,85.06
2023-03-24T14:10:48.581Z,84.68
2023-03-24T14:13:16.975Z,84.13
2023-03-24T14:15:46.907Z,83.93
2023-03-24T14:18:23.298Z,83.38
2023-03-24T14:20:57.811Z,83.58
2023-03-24T14:23:49.567Z,84.77
2023-03-24T14:26:34.347Z,84.56
2023-03-24T14:29:03.141Z,84.07
2023-03-24T14:31:33.138Z,84.75
2023-03-24T14:34:20.670Z,84.49
2023-03-24T14:37:01.700Z,83.85
2023-03-24T14:39:42.641Z,84.41
2023-03-24T14:42:49.006Z,84.69
2023-03-24T14:45:40.301Z,83.99
2023-03-24T14:48:39.624Z,83.73
2023-03-24T14:51:28.597Z,85.28
2023-03-24T14:53:59.333Z,85.25
2023-03-24T14:56:34.384Z,84.19
2023-03-24T14:59:05.807Z,85.10
2023-03-24T15:01:38.257Z,85.40
2023-03-24T15:04:08.201Z,85.65
2023-03-24T15:06:47.337Z,85.86
2023-03-24T15:09:17.543Z,85.74
2023-03-24T15:11:48.518Z,86.51
2023-03-24T15:14:23.227Z,87.07
2023-03-24T15:16:58.098Z,86.99
2023-03-24T15:19:28.338Z,87.46
2023-03-24T15:22:06.042Z,88.07
2023-03-24T15:24:36.998Z,88.79
2023-03-24T15:27:08.137Z,89.54
2023-03-24T15:29:38.923Z,89.08
2023-03-24T15:32:08.282Z,89.54
2023-03-24T15:34:40.312Z,89.56
2023-03-24T15:37:23.335Z,89.75
2023-03-24T15:39:59.207Z,89.50
2023-03-24T15:42:41.256Z,90.29
2023-03-24T15:45:38.530Z,90.04
2023-03-24T15:48:14.539Z,90.06
2023-03-24T15:50:56.389Z,90.22
2023-03-24T15:53:45.701Z,91.39
2023-03-24T15:56:13.464Z,93.00
2023-03-24T15:59:12.914Z,92.83
2023-03-24T16:01:44.073Z,93.76
2023-03-24T16:04:18.644Z,93.27
2023-03-24T16:06:52.899Z,94.04
2023-03-24T16:09:23.037Z,93.92
2023-03-24T16:11:50.896Z,94.27
2023-03-24T16:14:30.191Z,94.44
2023-03-24T16:17:01.854Z,94.06
2023-03-24T16:19:30.405Z,94.05
2023-03-24T16:21:58.487Z,94.14
2023-03-24T16:24:26.712Z,94.71
2023-03-24T16:26:54.548Z,97.33
2023-03-24T16:29:24.769Z,97.22
2023-03-24T16:31:54.235Z,100.00
2023-03-24T16:34:23.855Z,100.00
2023-03-24T16:36:53.627Z,100.00
2023-03-24T16:39:27.376Z,100.00
2023-03-24T16:41:56.841Z,100.00
2023-03-24T16:44:25.711Z,100.00
2023-03-24T16:46:55.054Z,100.00
2023-03-24T16:49:24.778Z,100.00
2023-03-24T16:51:54.311Z,100.00
2023-03-24T16:54:22.498Z,100.00
2023-03-24T16:56:50.597Z,100.00
2023-03-24T16:59:20.300Z,100.00
2023-03-24T17:01:48.955Z,100.00
2023-03-24T17:04:19.714Z,100.00
2023-03-24T17:06:53.122Z,100.00
2023-03-24T17:09:22.119Z,100.00
2023-03-24T17:11:57.659Z,100.00
2023-03-24T17:14:26.130Z,100.00
2023-03-24T17:16:54.625Z,100.00
2023-03-24T17:19:25.057Z,100.00
2023-03-24T17:22:01.966Z,100.00
2023-03-24T17:24:36.289Z,100.00
2023-03-24T17:27:05.214Z,100.00
2023-03-24T17:29:33.705Z,100.00
2023-03-24T17:32:01.315Z,100.00
2023-03-24T17:34:29.451Z,100.00
2023-03-24T17:36:57.088Z,100.00
2023-03-24T17:39:25.689Z,100.00
2023-03-24T17:41:57.965Z,100.00
2023-03-24T17:44:26.249Z,100.00
2023-03-24T17:46:54.387Z,100.00
2023-03-24T17:49:22.773Z,100.00
2023-03-24T17:51:50.743Z,100.00
2023-03-24T17:54:20.998Z,100.00
2023-03-24T17:56:49.071Z,100.00
2023-03-24T17:59:17.631Z,100.00
2023-03-24T18:01:47.989Z,100.00
2023-03-24T18:04:17.829Z,100.00
2023-03-24T18:06:46.973Z,100.00
2023-03-24T18:09:15.368Z,100.00
2023-03-24T18:11:42.840Z,100.00
2023-03-24T18:14:11.235Z,100.00
2023-03-24T18:16:41.942Z,100.00
2023-03-24T18:19:11.046Z,100.00
2023-03-24T18:21:40.116Z,100.00
2023-03-24T18:24:09.046Z,100.00
2023-03-24T18:26:37.398Z,100.00
2023-03-24T18:29:06.194Z,100.00
2023-03-24T18:31:34.778Z,100.00
2023-03-24T18:34:04.278Z,100.00
2023-03-24T18:36:32.704Z,100.00
2023-03-24T18:39:07.331Z,100.00
2023-03-24T18:41:37.332Z,100.00
2023-03-24T18:44:17.777Z,100.00
2023-03-24T18:46:46.002Z,100.00
2023-03-24T18:49:17.324Z,100.00
2023-03-24T18:51:47.195Z,100.00
2023-03-24T18:54:15.886Z,100.00
2023-03-24T18:56:43.723Z,100.00
2023-03-24T18:59:13.286Z,100.00
2023-03-24T19:01:41.348Z,100.00
2023-03-24T19:04:09.949Z,100.00
2023-03-24T19:06:42.476Z,100.00
2023-03-24T19:09:11.253Z,100.00
2023-03-24T19:11:41.128Z,100.00
2023-03-24T19:14:12.296Z,100.00
2023-03-24T19:16:40.602Z,100.00
2023-03-24T19:19:10.427Z,100.00
2023-03-24T19:21:38.681Z,100.00
2023-03-24T19:24:07.487Z,100.00
2023-03-24T19:26:36.280Z,100.00
2023-03-24T19:29:04.732Z,100.00
2023-03-24T19:31:33.875Z,100.00
2023-03-24T19:34:02.502Z,100.00
2023-03-24T19:36:30.561Z,100.00
2023-03-24T19:38:58.751Z,100.00
2023-03-24T19:41:26.615Z,100.00
2023-03-24T19:43:55.031Z,100.00
2023-03-24T19:46:23.010Z,100.00
2023-03-24T19:48:51.440Z,100.00
2023-03-24T19:51:21.288Z,100.00
2023-03-24T19:53:49.596Z,100.00
2023-03-24T19:56:19.423Z,100.00
2023-03-24T19:58:47.961Z,100.00
2023-03-24T20:01:15.834Z,100.00
2023-03-24T20:03:44.579Z,100.00
2023-03-24T20:06:12.807Z,100.00
2023-03-24T20:08:41.474Z,100.00
2023-03-24T20:11:11.314Z,100.00
2023-03-24T20:13:40.086Z,100.00
2023-03-24T20:16:07.880Z,100.00
2023-03-24T20:18:36.441Z,100.00
2023-03-24T20:21:07.005Z,100.00
2023-03-24T20:23:35.773Z,100.00
2023-03-24T20:26:04.799Z,100.00
2023-03-24T20:28:33.439Z,100.00
2023-03-24T20:31:03.771Z,100.00
2023-03-24T20:33:33.397Z,100.00
2023-03-24T20:36:02.050Z,100.00
2023-03-24T20:38:31.554Z,100.00
2023-03-24T20:41:02.666Z,100.00
2023-03-24T20:43:35.776Z,100.00
2023-03-24T20:46:08.584Z,100.00
2023-03-24T20:48:37.215Z,100.00
2023-03-24T20:51:06.236Z,100.00
2023-03-24T20:53:36.983Z,100.00
2023-03-24T20:56:08.006Z,100.00
2023-03-24T20:58:41.569Z,100.00
2023-03-24T21:01:13.604Z,100.00
2023-03-24T21:03:42.233Z,100.00
2023-03-24T21:06:11.493Z,100.00
2023-03-24T21:08:43.961Z,100.00
2023-03-24T21:11:13.866Z,100.00
2023-03-24T21:13:42.354Z,100.00
2023-03-24T21:16:11.480Z,100.00
2023-03-24T21:18:42.720Z,100.00
2023-03-24T21:21:16.198Z,100.00
2023-03-24T21:23:44.743Z,100.00
2023-03-24T21:26:15.881Z,100.00
2023-03-24T21:28:46.109Z,100.00
2023-03-24T21:31:18.686Z,100.00
2023-03-24T21:33:47.277Z,100.00
2023-03-24T21:36:16.059Z,100.00
2023-03-24T21:38:44.805Z,100.00
2023-03-24T21:41:13.430Z,100.00
2023-03-24T21:43:42.321Z,100.00
2023-03-24T21:46:15.378Z,100.00
2023-03-24T21:48:50.373Z,100.00
2023-03-24T21:51:20.845Z,100.00
2023-03-24T21:53:49.468Z,100.00
2023-03-24T21:56:18.103Z,100.00
2023-03-24T21:58:46.809Z,100.00
2023-03-24T22:01:15.019Z,100.00
2023-03-24T22:03:43.292Z,100.00
2023-03-24T22:06:11.452Z,100.00
2023-03-24T22:08:44.047Z,100.00
2023-03-24T22:11:15.478Z,100.00
2023-03-24T22:13:43.844Z,100.00
2023-03-24T22:16:11.859Z,100.00
2023-03-24T22:18:40.648Z,100.00
2023-03-24T22:21:13.312Z,100.00
2023-03-24T22:23:43.112Z,100.00
2023-03-24T22:26:13.829Z,100.00
2023-03-24T22:28:42.595Z,100.00
2023-03-24T22:31:12.949Z,100.00
2023-03-24T22:33:42.499Z,100.00
2023-03-24T22:36:11.119Z,100.00
2023-03-24T22:38:40.028Z,100.00
2023-03-24T22:41:11.306Z,100.00
2023-03-24T22:43:40.102Z,100.00
2023-03-24T22:46:11.285Z,100.00
2023-03-24T22:48:40.359Z,100.00
2023-03-24T22:51:09.067Z,100.00
2023-03-24T22:53:36.995Z,100.00
2023-03-24T22:56:06.458Z,100.00
2023-03-24T22:58:36.086Z,100.00
2023-03-24T23:01:05.601Z,100.00
2023-03-24T23:03:34.399Z,100.00
2023-03-24T23:06:02.911Z,100.00
2023-03-24T23:08:32.715Z,100.00
2023-03-24T23:11:01.260Z,100.00
2023-03-24T23:13:30.967Z,100.00
2023-03-24T23:15:58.819Z,100.00
2023-03-24T23:18:27.216Z,100.00
2023-03-24T23:21:11.879Z,100.00
2023-03-24T23:23:41.508Z,100.00
2023-03-24T23:26:25.184Z,100.00
2023-03-24T23:28:55.230Z,100.00
2023-03-24T23:31:26.009Z,100.00
2023-03-24T23:33:58.577Z,100.00
2023-03-24T23:36:28.619Z,100.00
2023-03-24T23:38:57.579Z,100.00
2023-03-24T23:41:25.531Z,100.00
2023-03-24T23:43:55.833Z,100.00
2023-03-24T23:46:25.061Z,100.00
2023-03-24T23:48:53.912Z,100.00
2023-03-24T23:51:22.371Z,100.00
2023-03-24T23:53:51.221Z,100.00
2023-03-24T23:56:21.865Z,100.00
2023-03-24T23:58:50.247Z,100.00
